sensor_id;sensor_type;location;lat;lon;timestamp;pressure;altitude;pressure_sealevel;temperature;humidity
77526;BME280;66627;29.424;-98.496;2023-02-15T00:00:32;98138.48;;;24.81;9.77
77526;BME280;66627;29.424;-98.496;2023-02-15T00:02:58;98142.87;;;24.86;9.71
77526;BME280;66627;29.424;-98.496;2023-02-15T00:05:23;98141.45;;;24.64;8.97
77526;BME280;66627;29.424;-98.496;2023-02-15T00:07:48;98144.22;;;24.47;9.74
77526;BME280;66627;29.424;-98.496;2023-02-15T00:10:13;98148.16;;;24.38;9.66
77526;BME280;66627;29.424;-98.496;2023-02-15T00:12:38;98151.62;;;24.78;9.57
77526;BME280;66627;29.424;-98.496;2023-02-15T00:15:04;98153.09;;;24.79;10.00
77526;BME280;66627;29.424;-98.496;2023-02-15T00:17:29;98155.96;;;25.01;10.30
77526;BME280;66627;29.424;-98.496;2023-02-15T00:19:54;98161.72;;;24.37;9.59
77526;BME280;66627;29.424;-98.496;2023-02-15T00:22:19;98168.37;;;24.49;9.73
77526;BME280;66627;29.424;-98.496;2023-02-15T00:24:44;98171.31;;;24.70;9.87
77526;BME280;66627;29.424;-98.496;2023-02-15T00:27:09;98173.08;;;24.58;9.56
77526;BME280;66627;29.424;-98.496;2023-02-15T00:29:34;98174.50;;;24.55;9.60
77526;BME280;66627;29.424;-98.496;2023-02-15T00:31:59;98176.45;;;24.59;9.72
77526;BME280;66627;29.424;-98.496;2023-02-15T00:34:26;98178.35;;;24.38;9.77
77526;BME280;66627;29.424;-98.496;2023-02-15T00:36:50;98181.15;;;23.88;10.41
77526;BME280;66627;29.424;-98.496;2023-02-15T00:39:16;98184.83;;;24.26;9.91
77526;BME280;66627;29.424;-98.496;2023-02-15T00:41:40;98194.66;;;24.02;10.39
77526;BME280;66627;29.424;-98.496;2023-02-15T00:44:06;98199.71;;;23.64;10.42
77526;BME280;66627;29.424;-98.496;2023-02-15T00:46:31;98205.30;;;23.43;11.06
77526;BME280;66627;29.424;-98.496;2023-02-15T00:48:56;98201.03;;;23.56;10.40
77526;BME280;66627;29.424;-98.496;2023-02-15T00:51:21;98202.36;;;23.31;10.81
77526;BME280;66627;29.424;-98.496;2023-02-15T00:53:46;98205.28;;;22.65;11.53
77526;BME280;66627;29.424;-98.496;2023-02-15T00:56:12;98205.00;;;22.52;11.15
77526;BME280;66627;29.424;-98.496;2023-02-15T00:58:36;98213.49;;;21.79;11.76
77526;BME280;66627;29.424;-98.496;2023-02-15T01:01:05;98211.69;;;22.14;11.15
77526;BME280;66627;29.424;-98.496;2023-02-15T01:03:27;98205.27;;;22.11;11.22
77526;BME280;66627;29.424;-98.496;2023-02-15T01:05:52;98202.09;;;22.01;11.75
77526;BME280;66627;29.424;-98.496;2023-02-15T01:08:17;98202.84;;;22.34;12.13
77526;BME280;66627;29.424;-98.496;2023-02-15T01:10:42;98202.00;;;21.73;13.33
77526;BME280;66627;29.424;-98.496;2023-02-15T01:13:07;98203.15;;;22.20;12.16
77526;BME280;66627;29.424;-98.496;2023-02-15T01:15:35;98207.75;;;21.47;13.20
77526;BME280;66627;29.424;-98.496;2023-02-15T01:17:58;98212.96;;;21.10;13.25
77526;BME280;66627;29.424;-98.496;2023-02-15T01:20:25;98216.13;;;20.92;13.13
77526;BME280;66627;29.424;-98.496;2023-02-15T01:22:48;98217.65;;;21.06;13.49
77526;BME280;66627;29.424;-98.496;2023-02-15T01:25:14;98220.72;;;20.98;12.68
77526;BME280;66627;29.424;-98.496;2023-02-15T01:27:39;98222.26;;;20.89;13.44
77526;BME280;66627;29.424;-98.496;2023-02-15T01:30:06;98231.07;;;20.68;13.37
77526;BME280;66627;29.424;-98.496;2023-02-15T01:32:31;98231.02;;;21.17;13.51
77526;BME280;66627;29.424;-98.496;2023-02-15T01:34:57;98230.65;;;20.27;13.95
77526;BME280;66627;29.424;-98.496;2023-02-15T01:37:21;98232.17;;;19.99;14.60
77526;BME280;66627;29.424;-98.496;2023-02-15T01:39:47;98235.20;;;20.50;14.51
77526;BME280;66627;29.424;-98.496;2023-02-15T01:42:13;98240.19;;;20.19;15.17
77526;BME280;66627;29.424;-98.496;2023-02-15T01:44:49;98239.19;;;19.86;15.08
77526;BME280;66627;29.424;-98.496;2023-02-15T01:47:03;98243.02;;;19.83;15.99
77526;BME280;66627;29.424;-98.496;2023-02-15T01:49:28;98242.65;;;19.72;15.54
77526;BME280;66627;29.424;-98.496;2023-02-15T01:51:54;98244.90;;;18.63;15.92
77526;BME280;66627;29.424;-98.496;2023-02-15T01:54:23;98248.49;;;17.30;17.38
77526;BME280;66627;29.424;-98.496;2023-02-15T01:56:45;98248.21;;;18.50;17.74
77526;BME280;66627;29.424;-98.496;2023-02-15T01:59:16;98255.28;;;18.33;18.02
77526;BME280;66627;29.424;-98.496;2023-02-15T02:01:37;98255.15;;;17.97;18.42
77526;BME280;66627;29.424;-98.496;2023-02-15T02:04:09;98257.34;;;18.38;19.65
77526;BME280;66627;29.424;-98.496;2023-02-15T02:06:28;98260.11;;;18.11;17.72
77526;BME280;66627;29.424;-98.496;2023-02-15T02:08:53;98264.63;;;17.90;16.26
77526;BME280;66627;29.424;-98.496;2023-02-15T02:11:18;98264.25;;;18.31;17.18
77526;BME280;66627;29.424;-98.496;2023-02-15T02:13:44;98275.00;;;17.64;18.08
77526;BME280;66627;29.424;-98.496;2023-02-15T02:16:14;98280.63;;;17.48;19.27
77526;BME280;66627;29.424;-98.496;2023-02-15T02:18:44;98282.01;;;16.96;19.33
77526;BME280;66627;29.424;-98.496;2023-02-15T02:21:13;98282.05;;;17.50;19.11
77526;BME280;66627;29.424;-98.496;2023-02-15T02:23:33;98282.74;;;17.99;18.27
77526;BME280;66627;29.424;-98.496;2023-02-15T02:28:30;98282.07;;;18.69;16.67
77526;BME280;66627;29.424;-98.496;2023-02-15T02:30:54;98282.65;;;18.29;16.76
77526;BME280;66627;29.424;-98.496;2023-02-15T02:35:37;98284.11;;;16.98;18.54
77526;BME280;66627;29.424;-98.496;2023-02-15T02:38:05;98282.77;;;18.15;18.20
77526;BME280;66627;29.424;-98.496;2023-02-15T02:40:33;98283.66;;;17.81;18.17
77526;BME280;66627;29.424;-98.496;2023-02-15T02:42:53;98287.64;;;17.23;19.80
77526;BME280;66627;29.424;-98.496;2023-02-15T02:45:19;98293.05;;;17.62;19.66
77526;BME280;66627;29.424;-98.496;2023-02-15T02:47:44;98294.27;;;18.06;19.26
77526;BME280;66627;29.424;-98.496;2023-02-15T02:50:09;98293.73;;;17.44;19.14
77526;BME280;66627;29.424;-98.496;2023-02-15T02:52:38;98289.28;;;18.23;18.01
77526;BME280;66627;29.424;-98.496;2023-02-15T02:54:56;98283.03;;;17.73;21.15
77526;BME280;66627;29.424;-98.496;2023-02-15T02:57:26;98289.12;;;17.73;21.55
77526;BME280;66627;29.424;-98.496;2023-02-15T02:59:50;98299.53;;;17.11;22.84
77526;BME280;66627;29.424;-98.496;2023-02-15T03:02:15;98303.02;;;16.64;21.40
77526;BME280;66627;29.424;-98.496;2023-02-15T03:04:39;98304.45;;;15.94;20.98
77526;BME280;66627;29.424;-98.496;2023-02-15T03:07:09;98296.94;;;17.57;19.69
77526;BME280;66627;29.424;-98.496;2023-02-15T03:09:31;98293.97;;;17.13;20.34
77526;BME280;66627;29.424;-98.496;2023-02-15T03:11:54;98292.07;;;16.64;21.08
77526;BME280;66627;29.424;-98.496;2023-02-15T03:14:20;98293.02;;;15.80;22.08
77526;BME280;66627;29.424;-98.496;2023-02-15T03:16:48;98297.94;;;16.07;22.47
77526;BME280;66627;29.424;-98.496;2023-02-15T03:19:14;98297.63;;;15.79;23.83
77526;BME280;66627;29.424;-98.496;2023-02-15T03:21:40;98305.30;;;15.34;23.59
77526;BME280;66627;29.424;-98.496;2023-02-15T03:24:09;98313.76;;;15.91;23.42
77526;BME280;66627;29.424;-98.496;2023-02-15T03:26:29;98314.03;;;16.43;22.87
77526;BME280;66627;29.424;-98.496;2023-02-15T03:28:56;98319.43;;;16.55;22.30
77526;BME280;66627;29.424;-98.496;2023-02-15T03:31:23;98323.40;;;16.20;23.00
77526;BME280;66627;29.424;-98.496;2023-02-15T03:33:51;98316.31;;;14.23;24.38
77526;BME280;66627;29.424;-98.496;2023-02-15T03:36:14;98314.03;;;13.59;25.76
77526;BME280;66627;29.424;-98.496;2023-02-15T03:38:40;98318.73;;;13.35;24.85
77526;BME280;66627;29.424;-98.496;2023-02-15T03:41:02;98314.47;;;13.95;26.34
77526;BME280;66627;29.424;-98.496;2023-02-15T03:43:32;98310.30;;;15.66;23.88
77526;BME280;66627;29.424;-98.496;2023-02-15T03:45:55;98309.77;;;15.17;22.96
77526;BME280;66627;29.424;-98.496;2023-02-15T03:48:16;98307.61;;;14.79;23.38
77526;BME280;66627;29.424;-98.496;2023-02-15T03:50:43;98307.01;;;14.68;23.81
77526;BME280;66627;29.424;-98.496;2023-02-15T03:53:11;98313.86;;;14.73;23.89
77526;BME280;66627;29.424;-98.496;2023-02-15T03:55:35;98313.60;;;15.15;23.75
77526;BME280;66627;29.424;-98.496;2023-02-15T03:58:00;98308.23;;;14.61;23.85
77526;BME280;66627;29.424;-98.496;2023-02-15T04:00:25;98304.89;;;15.31;24.89
77526;BME280;66627;29.424;-98.496;2023-02-15T04:05:15;98293.57;;;15.35;23.02
77526;BME280;66627;29.424;-98.496;2023-02-15T04:07:41;98297.55;;;14.48;24.34
77526;BME280;66627;29.424;-98.496;2023-02-15T04:10:07;98299.54;;;14.37;24.53
77526;BME280;66627;29.424;-98.496;2023-02-15T04:12:32;98298.74;;;14.21;24.12
77526;BME280;66627;29.424;-98.496;2023-02-15T04:14:58;98298.08;;;15.42;22.52
77526;BME280;66627;29.424;-98.496;2023-02-15T04:17:23;98301.58;;;13.89;24.35
77526;BME280;66627;29.424;-98.496;2023-02-15T04:19:49;98307.07;;;13.28;24.96
77526;BME280;66627;29.424;-98.496;2023-02-15T04:22:14;98301.72;;;14.77;23.02
77526;BME280;66627;29.424;-98.496;2023-02-15T04:24:39;98306.10;;;14.72;24.35
77526;BME280;66627;29.424;-98.496;2023-02-15T04:27:05;98309.21;;;15.07;23.45
77526;BME280;66627;29.424;-98.496;2023-02-15T04:29:30;98308.66;;;14.64;24.28
77526;BME280;66627;29.424;-98.496;2023-02-15T04:31:57;98308.21;;;15.36;23.55
77526;BME280;66627;29.424;-98.496;2023-02-15T04:34:21;98309.66;;;15.67;24.13
77526;BME280;66627;29.424;-98.496;2023-02-15T04:36:47;98314.81;;;15.18;25.12
77526;BME280;66627;29.424;-98.496;2023-02-15T04:39:14;98315.71;;;14.81;25.19
77526;BME280;66627;29.424;-98.496;2023-02-15T04:41:37;98317.55;;;14.18;25.84
77526;BME280;66627;29.424;-98.496;2023-02-15T04:44:04;98324.50;;;13.88;26.16
77526;BME280;66627;29.424;-98.496;2023-02-15T04:46:29;98324.07;;;14.02;26.22
77526;BME280;66627;29.424;-98.496;2023-02-15T04:48:56;98330.05;;;13.20;26.62
77526;BME280;66627;29.424;-98.496;2023-02-15T04:51:20;98329.72;;;13.04;26.05
77526;BME280;66627;29.424;-98.496;2023-02-15T04:53:45;98325.49;;;13.52;26.32
77526;BME280;66627;29.424;-98.496;2023-02-15T04:56:11;98319.74;;;15.11;24.60
77526;BME280;66627;29.424;-98.496;2023-02-15T04:58:36;98319.42;;;14.79;24.97
77526;BME280;66627;29.424;-98.496;2023-02-15T05:01:02;98321.38;;;15.31;24.55
77526;BME280;66627;29.424;-98.496;2023-02-15T05:03:26;98323.04;;;14.80;25.84
77526;BME280;66627;29.424;-98.496;2023-02-15T05:05:52;98317.81;;;14.58;25.64
77526;BME280;66627;29.424;-98.496;2023-02-15T05:08:17;98314.75;;;13.70;25.60
77526;BME280;66627;29.424;-98.496;2023-02-15T05:10:43;98306.56;;;14.50;24.47
77526;BME280;66627;29.424;-98.496;2023-02-15T05:13:08;98299.92;;;15.30;23.81
77526;BME280;66627;29.424;-98.496;2023-02-15T05:15:35;98299.07;;;14.69;25.87
77526;BME280;66627;29.424;-98.496;2023-02-15T05:17:59;98299.97;;;13.87;26.22
77526;BME280;66627;29.424;-98.496;2023-02-15T05:20:25;98302.02;;;15.02;25.04
77526;BME280;66627;29.424;-98.496;2023-02-15T05:22:54;98296.24;;;13.52;27.10
77526;BME280;66627;29.424;-98.496;2023-02-15T05:25:16;98300.47;;;12.81;27.52
77526;BME280;66627;29.424;-98.496;2023-02-15T05:27:42;98304.60;;;12.37;26.83
77526;BME280;66627;29.424;-98.496;2023-02-15T05:30:08;98304.19;;;12.58;27.14
77526;BME280;66627;29.424;-98.496;2023-02-15T05:32:34;98301.84;;;14.45;25.99
77526;BME280;66627;29.424;-98.496;2023-02-15T05:34:59;98293.00;;;14.52;25.47
77526;BME280;66627;29.424;-98.496;2023-02-15T05:37:25;98293.35;;;14.04;26.90
77526;BME280;66627;29.424;-98.496;2023-02-15T05:39:50;98288.68;;;14.47;25.56
77526;BME280;66627;29.424;-98.496;2023-02-15T05:42:16;98282.66;;;13.90;26.28
77526;BME280;66627;29.424;-98.496;2023-02-15T05:44:41;98271.82;;;13.05;27.58
77526;BME280;66627;29.424;-98.496;2023-02-15T05:47:06;98257.93;;;13.61;26.62
77526;BME280;66627;29.424;-98.496;2023-02-15T05:49:32;98254.13;;;13.38;27.94
77526;BME280;66627;29.424;-98.496;2023-02-15T05:51:58;98288.58;;;13.49;28.59
77526;BME280;66627;29.424;-98.496;2023-02-15T05:54:23;98334.10;;;13.07;27.99
77526;BME280;66627;29.424;-98.496;2023-02-15T05:56:49;98333.55;;;12.48;27.66
77526;BME280;66627;29.424;-98.496;2023-02-15T05:59:15;98327.95;;;12.01;28.78
77526;BME280;66627;29.424;-98.496;2023-02-15T06:01:40;98333.20;;;13.35;27.23
77526;BME280;66627;29.424;-98.496;2023-02-15T06:04:05;98333.97;;;12.26;27.79
77526;BME280;66627;29.424;-98.496;2023-02-15T06:06:30;98340.35;;;12.07;29.38
77526;BME280;66627;29.424;-98.496;2023-02-15T06:08:56;98335.69;;;12.43;28.23
77526;BME280;66627;29.424;-98.496;2023-02-15T06:11:21;98330.69;;;11.89;28.15
77526;BME280;66627;29.424;-98.496;2023-02-15T06:13:47;98329.04;;;12.29;29.07
77526;BME280;66627;29.424;-98.496;2023-02-15T06:16:12;98328.59;;;12.53;27.69
77526;BME280;66627;29.424;-98.496;2023-02-15T06:18:38;98323.96;;;12.72;26.46
77526;BME280;66627;29.424;-98.496;2023-02-15T06:21:04;98320.46;;;12.68;26.86
77526;BME280;66627;29.424;-98.496;2023-02-15T06:23:29;98321.75;;;13.05;26.79
77526;BME280;66627;29.424;-98.496;2023-02-15T06:25:55;98322.58;;;12.56;27.68
77526;BME280;66627;29.424;-98.496;2023-02-15T06:28:21;98319.13;;;12.97;26.40
77526;BME280;66627;29.424;-98.496;2023-02-15T06:30:46;98318.33;;;12.72;26.89
77526;BME280;66627;29.424;-98.496;2023-02-15T06:33:11;98316.31;;;12.27;28.36
77526;BME280;66627;29.424;-98.496;2023-02-15T06:35:37;98324.02;;;12.65;28.29
77526;BME280;66627;29.424;-98.496;2023-02-15T06:38:02;98327.99;;;12.67;28.77
77526;BME280;66627;29.424;-98.496;2023-02-15T06:40:27;98331.14;;;12.48;28.47
77526;BME280;66627;29.424;-98.496;2023-02-15T06:42:52;98332.12;;;13.18;27.70
77526;BME280;66627;29.424;-98.496;2023-02-15T06:45:18;98332.04;;;12.81;27.92
77526;BME280;66627;29.424;-98.496;2023-02-15T06:47:44;98328.25;;;13.43;26.88
77526;BME280;66627;29.424;-98.496;2023-02-15T06:50:10;98324.34;;;13.46;26.69
77526;BME280;66627;29.424;-98.496;2023-02-15T06:52:34;98308.82;;;13.46;26.30
77526;BME280;66627;29.424;-98.496;2023-02-15T06:54:59;98290.66;;;12.54;29.58
77526;BME280;66627;29.424;-98.496;2023-02-15T06:57:25;98293.23;;;12.28;28.31
77526;BME280;66627;29.424;-98.496;2023-02-15T06:59:51;98299.39;;;12.62;27.41
77526;BME280;66627;29.424;-98.496;2023-02-15T07:02:17;98286.00;;;13.23;26.58
77526;BME280;66627;29.424;-98.496;2023-02-15T07:04:42;98277.47;;;12.99;28.03
77526;BME280;66627;29.424;-98.496;2023-02-15T07:07:10;98282.44;;;13.22;26.81
77526;BME280;66627;29.424;-98.496;2023-02-15T07:09:33;98279.58;;;13.19;26.45
77526;BME280;66627;29.424;-98.496;2023-02-15T07:11:58;98273.12;;;13.75;24.73
77526;BME280;66627;29.424;-98.496;2023-02-15T07:14:24;98272.59;;;13.34;25.72
77526;BME280;66627;29.424;-98.496;2023-02-15T07:16:49;98279.50;;;12.35;25.66
77526;BME280;66627;29.424;-98.496;2023-02-15T07:19:15;98280.79;;;13.09;24.71
77526;BME280;66627;29.424;-98.496;2023-02-15T07:21:41;98271.91;;;14.23;23.79
77526;BME280;66627;29.424;-98.496;2023-02-15T07:24:07;98274.45;;;13.08;24.36
77526;BME280;66627;29.424;-98.496;2023-02-15T07:26:33;98272.20;;;13.67;24.12
77526;BME280;66627;29.424;-98.496;2023-02-15T07:28:58;98264.82;;;14.30;25.51
77526;BME280;66627;29.424;-98.496;2023-02-15T07:31:24;98265.37;;;12.94;24.33
77526;BME280;66627;29.424;-98.496;2023-02-15T07:33:49;98266.45;;;13.60;23.96
77526;BME280;66627;29.424;-98.496;2023-02-15T07:36:15;98282.02;;;14.15;23.23
77526;BME280;66627;29.424;-98.496;2023-02-15T07:38:41;98294.52;;;12.95;25.67
77526;BME280;66627;29.424;-98.496;2023-02-15T07:41:08;98300.42;;;12.20;29.44
77526;BME280;66627;29.424;-98.496;2023-02-15T07:43:39;98299.58;;;12.08;29.26
77526;BME280;66627;29.424;-98.496;2023-02-15T07:46:00;98299.84;;;11.96;29.74
77526;BME280;66627;29.424;-98.496;2023-02-15T07:48:22;98294.29;;;13.40;25.85
77526;BME280;66627;29.424;-98.496;2023-02-15T07:50:47;98291.74;;;12.84;27.75
77526;BME280;66627;29.424;-98.496;2023-02-15T07:53:12;98294.56;;;13.44;26.49
77526;BME280;66627;29.424;-98.496;2023-02-15T07:55:38;98293.72;;;13.61;25.42
77526;BME280;66627;29.424;-98.496;2023-02-15T07:58:03;98293.45;;;13.46;26.01
77526;BME280;66627;29.424;-98.496;2023-02-15T08:00:29;98296.97;;;13.65;25.10
77526;BME280;66627;29.424;-98.496;2023-02-15T08:02:55;98296.51;;;13.48;25.90
77526;BME280;66627;29.424;-98.496;2023-02-15T08:05:21;98294.67;;;13.82;25.96
77526;BME280;66627;29.424;-98.496;2023-02-15T08:07:45;98297.33;;;13.05;26.97
77526;BME280;66627;29.424;-98.496;2023-02-15T08:10:15;98304.44;;;12.73;27.75
77526;BME280;66627;29.424;-98.496;2023-02-15T08:12:36;98309.22;;;12.48;27.90
77526;BME280;66627;29.424;-98.496;2023-02-15T08:15:01;98300.04;;;12.99;27.40
77526;BME280;66627;29.424;-98.496;2023-02-15T08:17:27;98296.66;;;13.24;27.36
77526;BME280;66627;29.424;-98.496;2023-02-15T08:19:52;98301.71;;;12.85;28.41
77526;BME280;66627;29.424;-98.496;2023-02-15T08:22:18;98307.87;;;12.17;28.83
77526;BME280;66627;29.424;-98.496;2023-02-15T08:24:42;98309.41;;;11.90;30.06
77526;BME280;66627;29.424;-98.496;2023-02-15T08:27:09;98306.28;;;11.69;30.66
77526;BME280;66627;29.424;-98.496;2023-02-15T08:29:34;98311.47;;;10.97;31.62
77526;BME280;66627;29.424;-98.496;2023-02-15T08:31:59;98314.91;;;11.29;31.86
77526;BME280;66627;29.424;-98.496;2023-02-15T08:34:24;98313.73;;;11.69;30.96
77526;BME280;66627;29.424;-98.496;2023-02-15T08:36:49;98308.69;;;11.90;30.69
77526;BME280;66627;29.424;-98.496;2023-02-15T08:39:15;98304.50;;;12.28;29.88
77526;BME280;66627;29.424;-98.496;2023-02-15T08:41:41;98300.88;;;13.17;28.63
77526;BME280;66627;29.424;-98.496;2023-02-15T08:44:07;98301.25;;;11.83;30.64
77526;BME280;66627;29.424;-98.496;2023-02-15T08:46:32;98297.83;;;11.04;32.18
77526;BME280;66627;29.424;-98.496;2023-02-15T08:48:57;98298.08;;;11.22;32.23
77526;BME280;66627;29.424;-98.496;2023-02-15T08:51:24;98300.21;;;11.01;32.53
77526;BME280;66627;29.424;-98.496;2023-02-15T08:53:49;98299.26;;;11.09;32.64
77526;BME280;66627;29.424;-98.496;2023-02-15T08:56:12;98299.13;;;11.12;32.56
77526;BME280;66627;29.424;-98.496;2023-02-15T08:58:38;98293.07;;;12.09;31.11
77526;BME280;66627;29.424;-98.496;2023-02-15T09:01:09;98281.85;;;11.35;31.23
77526;BME280;66627;29.424;-98.496;2023-02-15T09:03:28;98280.74;;;11.75;30.69
77526;BME280;66627;29.424;-98.496;2023-02-15T09:05:58;98273.01;;;12.46;30.76
77526;BME280;66627;29.424;-98.496;2023-02-15T09:08:19;98273.21;;;13.00;28.77
77526;BME280;66627;29.424;-98.496;2023-02-15T09:10:44;98280.33;;;12.07;31.06
77526;BME280;66627;29.424;-98.496;2023-02-15T09:13:09;98282.06;;;11.65;31.97
77526;BME280;66627;29.424;-98.496;2023-02-15T09:15:35;98272.39;;;13.04;30.84
77526;BME280;66627;29.424;-98.496;2023-02-15T09:18:00;98267.75;;;13.35;30.73
77526;BME280;66627;29.424;-98.496;2023-02-15T09:20:25;98270.04;;;12.65;31.29
77526;BME280;66627;29.424;-98.496;2023-02-15T09:22:52;98273.95;;;13.23;31.46
77526;BME280;66627;29.424;-98.496;2023-02-15T09:25:18;98273.98;;;12.04;32.09
77526;BME280;66627;29.424;-98.496;2023-02-15T09:27:42;98271.07;;;13.53;31.47
77526;BME280;66627;29.424;-98.496;2023-02-15T09:30:08;98268.51;;;13.19;31.60
77526;BME280;66627;29.424;-98.496;2023-02-15T09:32:34;98269.45;;;13.02;32.04
77526;BME280;66627;29.424;-98.496;2023-02-15T09:34:59;98263.26;;;13.19;31.63
77526;BME280;66627;29.424;-98.496;2023-02-15T09:37:24;98262.32;;;13.27;32.18
77526;BME280;66627;29.424;-98.496;2023-02-15T09:39:49;98261.95;;;13.88;31.19
77526;BME280;66627;29.424;-98.496;2023-02-15T09:42:28;98259.07;;;13.76;31.95
77526;BME280;66627;29.424;-98.496;2023-02-15T09:44:53;98240.84;;;14.23;31.90
77526;BME280;66627;29.424;-98.496;2023-02-15T09:49:35;98246.33;;;13.48;33.07
77526;BME280;66627;29.424;-98.496;2023-02-15T09:52:09;98250.49;;;13.32;34.03
77526;BME280;66627;29.424;-98.496;2023-02-15T09:54:32;98243.91;;;14.03;32.50
77526;BME280;66627;29.424;-98.496;2023-02-15T09:56:51;98242.49;;;13.33;34.09
77526;BME280;66627;29.424;-98.496;2023-02-15T09:59:19;98245.94;;;12.79;34.85
77526;BME280;66627;29.424;-98.496;2023-02-15T10:01:44;98254.85;;;12.70;35.38
77526;BME280;66627;29.424;-98.496;2023-02-15T10:04:16;98256.26;;;12.07;35.64
77526;BME280;66627;29.424;-98.496;2023-02-15T10:06:37;98251.13;;;11.99;35.94
77526;BME280;66627;29.424;-98.496;2023-02-15T10:09:05;98247.20;;;11.96;36.03
77526;BME280;66627;29.424;-98.496;2023-02-15T10:11:26;98245.92;;;11.89;36.32
77526;BME280;66627;29.424;-98.496;2023-02-15T10:13:52;98249.20;;;12.94;35.69
77526;BME280;66627;29.424;-98.496;2023-02-15T10:16:19;98242.76;;;13.60;35.32
77526;BME280;66627;29.424;-98.496;2023-02-15T10:21:10;98243.11;;;13.25;36.94
77526;BME280;66627;29.424;-98.496;2023-02-15T10:23:47;98241.92;;;14.22;35.60
77526;BME280;66627;29.424;-98.496;2023-02-15T10:26:00;98244.21;;;13.04;36.86
77526;BME280;66627;29.424;-98.496;2023-02-15T10:28:26;98241.28;;;13.35;36.51
77526;BME280;66627;29.424;-98.496;2023-02-15T10:30:48;98241.71;;;13.72;35.96
77526;BME280;66627;29.424;-98.496;2023-02-15T10:33:18;98247.42;;;11.93;38.31
77526;BME280;66627;29.424;-98.496;2023-02-15T10:35:43;98252.54;;;12.03;38.92
77526;BME280;66627;29.424;-98.496;2023-02-15T10:38:16;98250.70;;;12.85;37.42
77526;BME280;66627;29.424;-98.496;2023-02-15T10:40:36;98246.53;;;13.02;37.73
77526;BME280;66627;29.424;-98.496;2023-02-15T10:43:06;98245.31;;;13.00;38.33
77526;BME280;66627;29.424;-98.496;2023-02-15T10:45:27;98241.59;;;13.53;37.86
77526;BME280;66627;29.424;-98.496;2023-02-15T10:47:56;98228.85;;;13.65;37.84
77526;BME280;66627;29.424;-98.496;2023-02-15T10:50:22;98216.78;;;13.34;38.45
77526;BME280;66627;29.424;-98.496;2023-02-15T10:52:47;98207.74;;;14.30;37.31
77526;BME280;66627;29.424;-98.496;2023-02-15T10:55:10;98207.41;;;13.70;38.45
77526;BME280;66627;29.424;-98.496;2023-02-15T10:57:33;98219.69;;;13.32;39.00
77526;BME280;66627;29.424;-98.496;2023-02-15T11:00:05;98223.07;;;13.80;38.25
77526;BME280;66627;29.424;-98.496;2023-02-15T11:02:25;98221.74;;;14.14;38.79
77526;BME280;66627;29.424;-98.496;2023-02-15T11:04:51;98214.28;;;13.80;39.92
77526;BME280;66627;29.424;-98.496;2023-02-15T11:07:17;98223.85;;;13.71;40.64
77526;BME280;66627;29.424;-98.496;2023-02-15T11:09:40;98235.43;;;14.25;40.73
77526;BME280;66627;29.424;-98.496;2023-02-15T11:12:02;98239.47;;;14.34;39.99
77526;BME280;66627;29.424;-98.496;2023-02-15T11:14:34;98241.16;;;14.03;40.46
77526;BME280;66627;29.424;-98.496;2023-02-15T11:16:57;98238.48;;;13.77;41.27
77526;BME280;66627;29.424;-98.496;2023-02-15T11:19:21;98242.17;;;14.06;40.84
77526;BME280;66627;29.424;-98.496;2023-02-15T11:21:45;98241.68;;;14.46;40.42
77526;BME280;66627;29.424;-98.496;2023-02-15T11:24:11;98244.54;;;13.85;41.39
77526;BME280;66627;29.424;-98.496;2023-02-15T11:26:38;98249.86;;;14.32;41.48
77526;BME280;66627;29.424;-98.496;2023-02-15T11:29:01;98256.28;;;13.84;41.66
77526;BME280;66627;29.424;-98.496;2023-02-15T11:31:26;98256.64;;;13.93;43.73
77526;BME280;66627;29.424;-98.496;2023-02-15T11:33:53;98245.06;;;14.95;42.23
77526;BME280;66627;29.424;-98.496;2023-02-15T11:36:19;98234.61;;;14.48;42.25
77526;BME280;66627;29.424;-98.496;2023-02-15T11:38:42;98231.28;;;14.71;43.65
77526;BME280;66627;29.424;-98.496;2023-02-15T11:41:09;98248.39;;;14.27;44.19
77526;BME280;66627;29.424;-98.496;2023-02-15T11:43:36;98256.61;;;13.44;44.00
77526;BME280;66627;29.424;-98.496;2023-02-15T11:45:57;98248.98;;;13.90;42.41
77526;BME280;66627;29.424;-98.496;2023-02-15T11:48:23;98237.61;;;14.22;43.15
77526;BME280;66627;29.424;-98.496;2023-02-15T11:50:49;98227.79;;;13.78;45.59
77526;BME280;66627;29.424;-98.496;2023-02-15T11:53:17;98222.98;;;13.68;46.42
77526;BME280;66627;29.424;-98.496;2023-02-15T11:55:42;98226.95;;;13.59;46.19
77526;BME280;66627;29.424;-98.496;2023-02-15T11:58:12;98226.02;;;12.99;45.45
77526;BME280;66627;29.424;-98.496;2023-02-15T12:00:35;98239.70;;;13.67;43.29
77526;BME280;66627;29.424;-98.496;2023-02-15T12:02:58;98261.06;;;13.91;42.92
77526;BME280;66627;29.424;-98.496;2023-02-15T12:05:23;98253.58;;;14.20;43.03
77526;BME280;66627;29.424;-98.496;2023-02-15T12:07:52;98233.54;;;13.78;44.45
77526;BME280;66627;29.424;-98.496;2023-02-15T12:10:20;98232.54;;;13.52;47.32
77526;BME280;66627;29.424;-98.496;2023-02-15T12:12:38;98269.15;;;14.00;48.00
77526;BME280;66627;29.424;-98.496;2023-02-15T12:15:05;98302.73;;;14.16;48.06
77526;BME280;66627;29.424;-98.496;2023-02-15T12:17:32;98319.59;;;14.22;48.84
77526;BME280;66627;29.424;-98.496;2023-02-15T12:19:57;98304.02;;;14.06;50.20
77526;BME280;66627;29.424;-98.496;2023-02-15T12:22:24;98278.24;;;14.89;49.00
77526;BME280;66627;29.424;-98.496;2023-02-15T12:24:47;98271.54;;;15.21;48.36
77526;BME280;66627;29.424;-98.496;2023-02-15T12:27:16;98284.01;;;15.29;49.27
77526;BME280;66627;29.424;-98.496;2023-02-15T12:29:40;98279.76;;;15.55;48.48
77526;BME280;66627;29.424;-98.496;2023-02-15T12:32:01;98294.82;;;15.44;49.57
77526;BME280;66627;29.424;-98.496;2023-02-15T12:34:30;98313.71;;;15.49;50.49
77526;BME280;66627;29.424;-98.496;2023-02-15T12:36:54;98314.08;;;15.75;50.22
77526;BME280;66627;29.424;-98.496;2023-02-15T12:39:21;98299.38;;;16.32;48.96
77526;BME280;66627;29.424;-98.496;2023-02-15T12:41:46;98288.59;;;16.04;48.88